Friday, February 24, 2017, 12:05 PM EST

KEZF, Fredericksburg, Shannon Airport

Location: Fredericksburg, VA, United States Lat: 38.267
Local Time: 12:05 PM EST (17:05 GMT) Lon: -77.45
Time Zone: US/Eastern Elev: 85 ft

Show me the last for .
Show Decoded

2017-02-24 11:35 METAR KEZF 241635Z AUTO 20008G15KT 10SM SCT044 23/13 A2991 RMK AO2 T02310134 =
2017-02-24 11:15 METAR KEZF 241615Z AUTO 19012KT 10SM SCT041 23/14 A2991 RMK AO2 T02290135 =
2017-02-24 10:55 METAR KEZF 241555Z AUTO 22010KT 10SM CLR 22/14 A2992 RMK AO2 T02210135 =
2017-02-24 10:35 METAR KEZF 241535Z AUTO 20009KT 10SM CLR 22/14 A2992 RMK AO2 T02160136 =
2017-02-24 10:15 METAR KEZF 241515Z AUTO 20009KT 10SM CLR 21/14 A2993 RMK AO2 T02090139 =
2017-02-24 09:55 METAR KEZF 241455Z AUTO 18005KT 10SM CLR 20/14 A2993 RMK AO2 T01950142 =
2017-02-24 09:35 METAR KEZF 241435Z AUTO 20007KT 10SM CLR 18/14 A2993 RMK AO2 T01840140 =
2017-02-24 09:15 METAR KEZF 241415Z AUTO 20007KT 10SM CLR 18/14 A2994 RMK AO2 T01750139 =
2017-02-24 08:55 METAR KEZF 241355Z AUTO 20004KT 10SM CLR 17/14 A2994 RMK AO2 T01660137 =
2017-02-24 08:35 METAR KEZF 241335Z AUTO 21006KT 10SM CLR 16/14 A2993 RMK AO2 T01580140 =
2017-02-24 08:15 METAR KEZF 241315Z AUTO 19004KT 10SM CLR 15/14 A2993 RMK AO2 T01470143 =
2017-02-24 07:55 METAR KEZF 241255Z AUTO 17003KT 10SM CLR 13/13 A2992 RMK AO2 T01310131 =
2017-02-24 07:35 METAR KEZF 241235Z AUTO 00000KT 10SM CLR 12/12 A2992 RMK AO2 T01200120 =
2017-02-24 07:15 METAR KEZF 241215Z AUTO 00000KT 10SM CLR 12/12 A2992 RMK AO2 T01150115 =
2017-02-24 06:55 METAR KEZF 241155Z AUTO 00000KT 10SM CLR 11/11 A2992 RMK AO2 T01130113 10151
                 20096 =
2017-02-24 06:35 METAR KEZF 241135Z AUTO 00000KT 10SM CLR 10/10 A2992 RMK AO2 T01040104 =
2017-02-24 06:15 METAR KEZF 241115Z AUTO 17003KT 10SM CLR 10/10 A2992 RMK AO2 T01010101 =
2017-02-24 05:55 METAR KEZF 241055Z AUTO 00000KT 10SM CLR 10/10 A2992 RMK AO2 T00960096 =
2017-02-24 05:35 METAR KEZF 241035Z AUTO 00000KT 10SM CLR 10/10 A2991 RMK AO2 T00970097 =
2017-02-24 05:15 METAR KEZF 241015Z AUTO 00000KT 10SM CLR 10/10 A2991 RMK AO2 T01030103 =
2017-02-24 04:55 METAR KEZF 240955Z AUTO 00000KT 10SM CLR 10/10 A2991 RMK AO2 T01000100 =
2017-02-24 04:35 METAR KEZF 240935Z AUTO 00000KT 10SM CLR 10/10 A2991 RMK AO2 T01030103 =
2017-02-24 04:15 METAR KEZF 240915Z AUTO 00000KT 10SM CLR 11/11 A2990 RMK AO2 T01100110 =
2017-02-24 03:55 METAR KEZF 240855Z AUTO 00000KT 10SM CLR 12/12 A2990 RMK AO2 T01150115 =
2017-02-24 03:35 METAR KEZF 240835Z AUTO 18004KT 10SM CLR 12/12 A2990 RMK AO2 T01240118 =
2017-02-24 03:15 METAR KEZF 240815Z AUTO 00000KT 10SM CLR 13/12 A2990 RMK AO2 T01320117 =
2017-02-24 02:55 METAR KEZF 240755Z AUTO 00000KT 10SM CLR 14/12 A2990 RMK AO2 T01370119 =
2017-02-24 02:35 METAR KEZF 240735Z AUTO 20004KT 10SM CLR 14/12 A2990 RMK AO2 T01440121 =
2017-02-24 02:15 METAR KEZF 240715Z AUTO 19006KT 10SM CLR 15/12 A2990 RMK AO2 T01470122 =
2017-02-24 01:50 METAR KEZF 240650Z AUTO 19005KT 10SM CLR 15/12 A2990 RMK AO2 T01480121 =
2017-02-24 01:35 METAR KEZF 240635Z AUTO 18006KT 10SM CLR 15/12 A2990 RMK AO2 T01510121 =
2017-02-24 01:15 METAR KEZF 240615Z AUTO 17007KT 10SM CLR 15/12 A2990 RMK AO2 T01480118 =
2017-02-24 00:55 METAR KEZF 240555Z AUTO 17005KT 10SM CLR 15/12 A2990 RMK AO2 T01500117 10202
                 20150 402500130 =
2017-02-24 00:35 METAR KEZF 240535Z AUTO 19006KT 10SM CLR 16/12 A2990 RMK AO2 T01590118 =
2017-02-24 00:15 METAR KEZF 240515Z AUTO 19006KT 10SM CLR 16/12 A2990 RMK AO2 T01600117 =
2017-02-23 23:55 METAR KEZF 240455Z AUTO 19007KT 10SM CLR 17/12 A2990 RMK AO2 T01650117 =
2017-02-23 23:35 METAR KEZF 240435Z AUTO 18006KT 10SM CLR 17/12 A2990 RMK AO2 T01660116 =
2017-02-23 23:15 METAR KEZF 240415Z AUTO 19005KT 10SM CLR 17/12 A2990 RMK AO2 T01690115 =
2017-02-23 22:55 METAR KEZF 240355Z AUTO 18006KT 10SM CLR 17/12 A2989 RMK AO2 T01650115 =
2017-02-23 22:35 METAR KEZF 240335Z AUTO 18007KT 10SM CLR 18/12 A2989 RMK AO2 T01750115 =
2017-02-23 22:15 METAR KEZF 240315Z AUTO 19008KT 10SM CLR 18/12 A2989 RMK AO2 T01750115 =
2017-02-23 21:55 METAR KEZF 240255Z AUTO 18006KT 10SM CLR 17/12 A2989 RMK AO2 T01740115 =
2017-02-23 21:35 METAR KEZF 240235Z AUTO 19007KT 10SM CLR 18/12 A2988 RMK AO2 T01810116 =
2017-02-23 21:15 METAR KEZF 240215Z AUTO 19007KT 10SM CLR 16/11 A2988 RMK AO2 T01550110 =
2017-02-23 20:55 METAR KEZF 240155Z AUTO 19006KT 10SM CLR 17/11 A2988 RMK AO2 T01660111 =
2017-02-23 20:35 METAR KEZF 240135Z AUTO 18005KT 10SM CLR 19/12 A2988 RMK AO2 T01870115 =
2017-02-23 20:15 METAR KEZF 240115Z AUTO 19006KT 10SM CLR 18/12 A2988 RMK AO2 T01780115 =
2017-02-23 19:55 METAR KEZF 240055Z AUTO 19006KT 10SM CLR 20/12 A2988 RMK AO2 T01950116 =
2017-02-23 19:35 METAR KEZF 240035Z AUTO 19005KT 10SM CLR 20/12 A2987 RMK AO2 T02010117 =
2017-02-23 19:15 METAR KEZF 240015Z AUTO 18006KT 10SM CLR 20/12 A2987 RMK AO2 T01980118 =
2017-02-23 18:55 METAR KEZF 232355Z AUTO 18006KT 10SM CLR 21/12 A2986 RMK AO2 T02060119 10250
                 20206 =
2017-02-23 18:35 METAR KEZF 232335Z AUTO 18006KT 10SM CLR 21/12 A2986 RMK AO2 T02090120 =
2017-02-23 18:15 METAR KEZF 232315Z AUTO 19006KT 10SM CLR 22/12 A2985 RMK AO2 T02190120 =
2017-02-23 17:55 METAR KEZF 232255Z AUTO 19009KT 10SM CLR 23/12 A2984 RMK AO2 T02250121 =
2017-02-23 17:35 METAR KEZF 232235Z AUTO 20008KT 10SM CLR 23/12 A2984 RMK AO2 T02280121 =
2017-02-23 17:15 METAR KEZF 232215Z AUTO 22006KT 10SM CLR 23/12 A2983 RMK AO2 T02330120 =
2017-02-23 16:55 METAR KEZF 232155Z AUTO 20011KT 10SM CLR 24/12 A2983 RMK AO2 T02390120 =
2017-02-23 16:35 METAR KEZF 232135Z AUTO 19012KT 10SM SCT050 24/12 A2983 RMK AO2 T02430124 =
2017-02-23 16:15 METAR KEZF 232115Z AUTO 20008KT 10SM SCT050 24/13 A2982 RMK AO2 T02440128 =
2017-02-23 15:55 METAR KEZF 232055Z AUTO 19012G18KT 10SM SCT050 24/13 A2982 RMK AO2 T02440128 =
2017-02-23 15:35 METAR KEZF 232035Z AUTO 21009KT 10SM SCT050 25/13 A2981 RMK AO2 T02480130 =
2017-02-23 15:15 METAR KEZF 232015Z AUTO 19011G16KT 10SM SCT050 24/13 A2981 RMK AO2 T02420128 =
2017-02-23 14:55 METAR KEZF 231955Z AUTO 19012KT 10SM SCT050 SCT095 25/13 A2981 RMK AO2 T02460130
                 =
2017-02-23 14:35 METAR KEZF 231935Z AUTO 21006KT 10SM BKN050 24/13 A2981 RMK AO2 T02410127 =
2017-02-23 14:15 METAR KEZF 231915Z AUTO 23008G11KT 10SM SCT050 25/13 A2982 RMK AO2 T02450126 =
2017-02-23 13:55 METAR KEZF 231855Z AUTO 18010KT 160V220 10SM SCT048 24/13 A2982 RMK AO2
                 T02400128 =
2017-02-23 13:35 METAR KEZF 231835Z AUTO 18004KT 10SM CLR 24/13 A2983 RMK AO2 T02390131 =
2017-02-23 13:15 METAR KEZF 231815Z AUTO 21008KT 150V220 10SM CLR 24/14 A2984 RMK AO2 T02390137 =
2017-02-23 12:55 METAR KEZF 231755Z AUTO 18005KT 10SM CLR 23/14 A2986 RMK AO2 T02320137 10232
                 20135 =
2017-02-23 12:35 METAR KEZF 231735Z AUTO 21008KT 10SM CLR 22/14 A2987 RMK AO2 T02190139 =
2017-02-23 12:15 METAR KEZF 231715Z AUTO 22007KT 10SM CLR 21/14 A2988 RMK AO2 T02100139 =

Support USWX by starting your Amazon purchase here.